Time;durP1;ratioP1;P1;durP2;ratioP2;P2;SDS_P1;SDS_P2;PMS_P1;PMS_P2;Temp;Humidity;BMP_temperature;BMP_pressure;BME280_temperature;BME280_humidity;BME280_pressure;Samples;Min_cycle;Max_cycle;Signal;HPM_P1;HPM_P2
2022/07/30 00:00:18;;;;;;;3.47;2.57;;;;;;;17.65;100.00;96436.63;5050189;27;105443;-62
2022/07/30 00:02:45;;;;;;;2.83;2.50;;;;;;;17.78;100.00;96433.16;5052303;27;101841;-62
2022/07/30 00:05:12;;;;;;;2.50;2.30;;;;;;;17.78;100.00;96431.28;5050782;27;105498;-62
2022/07/30 00:07:39;;;;;;;2.80;2.60;;;;;;;17.78;100.00;96420.53;5051766;27;101997;-63
2022/07/30 00:10:09;;;;;;;2.70;2.50;;;;;;;17.74;100.00;96434.84;5051940;27;101817;-62
2022/07/30 00:12:36;;;;;;;2.43;2.27;;;;;;;17.69;100.00;96432.22;5052147;27;102374;-62
2022/07/30 00:15:03;;;;;;;2.80;2.60;;;;;;;17.95;100.00;96428.03;5051568;27;102665;-63
2022/07/30 00:17:31;;;;;;;2.83;2.63;;;;;;;17.83;100.00;96433.09;5054018;27;101831;-62
2022/07/30 00:19:57;;;;;;;2.80;2.60;;;;;;;17.81;100.00;96424.50;5050082;27;105493;-62
2022/07/30 00:22:25;;;;;;;2.90;2.70;;;;;;;17.70;100.00;96420.38;5033478;27;101924;-62
2022/07/30 00:24:52;;;;;;;2.63;2.43;;;;;;;17.65;100.00;96415.09;5049918;27;105192;-62
2022/07/30 00:27:21;;;;;;;2.70;2.50;;;;;;;17.66;100.00;96419.38;5050106;27;104182;-62
2022/07/30 00:29:49;;;;;;;2.83;2.63;;;;;;;17.61;100.00;96424.84;5050567;27;101804;-63
2022/07/30 00:32:16;;;;;;;2.60;2.40;;;;;;;17.77;100.00;96428.88;5050012;27;105212;-62
2022/07/30 00:34:43;;;;;;;2.60;2.40;;;;;;;17.77;100.00;96426.19;5049545;27;105441;-63
2022/07/30 00:37:11;;;;;;;2.90;2.70;;;;;;;17.73;100.00;96427.88;5053601;27;101898;-63
2022/07/30 00:39:38;;;;;;;2.77;2.57;;;;;;;17.77;100.00;96429.66;5049098;27;104045;-63
2022/07/30 00:42:06;;;;;;;2.80;2.60;;;;;;;17.53;100.00;96430.88;5050234;27;101951;-63
2022/07/30 00:44:35;;;;;;;3.00;2.60;;;;;;;17.63;100.00;96434.22;5050280;27;105341;-62
2022/07/30 00:47:02;;;;;;;4.97;2.83;;;;;;;17.39;100.00;96438.88;5049424;27;105602;-62
2022/07/30 00:49:30;;;;;;;2.93;2.80;;;;;;;17.46;100.00;96441.22;5051455;27;101839;-63
2022/07/30 00:51:57;;;;;;;3.40;3.07;;;;;;;17.42;100.00;96429.44;5049930;27;104552;-62
2022/07/30 00:54:24;;;;;;;2.83;2.63;;;;;;;17.48;100.00;96425.56;5051048;27;102634;-62
2022/07/30 00:56:52;;;;;;;3.37;3.00;;;;;;;17.53;100.00;96428.19;5050083;27;102073;-63
2022/07/30 00:59:19;;;;;;;3.67;2.93;;;;;;;17.64;100.00;96425.06;5052628;27;105718;-62
2022/07/30 01:01:47;;;;;;;2.90;2.70;;;;;;;17.65;100.00;96426.66;5051307;27;101836;-63
2022/07/30 01:04:14;;;;;;;2.33;2.23;;;;;;;17.50;100.00;96424.19;5051125;27;102376;-62
2022/07/30 01:06:41;;;;;;;3.33;2.93;;;;;;;17.34;100.00;96428.16;5049239;27;105887;-63
2022/07/30 01:09:09;;;;;;;3.33;3.00;;;;;;;17.40;100.00;96423.56;5049800;27;101954;-62
2022/07/30 01:11:38;;;;;;;2.70;2.50;;;;;;;17.40;100.00;96423.56;5050014;27;105171;-63
2022/07/30 01:14:06;;;;;;;3.20;2.73;;;;;;;17.48;100.00;96421.00;5049015;27;105407;-63
2022/07/30 01:16:34;;;;;;;3.00;2.70;;;;;;;17.38;100.00;96420.34;5049419;27;102009;-63
2022/07/30 01:22:01;;;;;;;2.97;2.73;;;;;;;17.64;100.00;96418.88;5052596;27;105303;-62
2022/07/30 01:24:33;;;;;;;2.63;2.50;;;;;;;17.67;100.00;96423.66;5049611;27;105529;-63
2022/07/30 01:27:03;;;;;;;3.40;2.97;;;;;;;17.58;100.00;96420.84;5049024;27;105722;-63
2022/07/30 01:29:32;;;;;;;3.87;2.90;;;;;;;17.49;100.00;96405.69;5049479;27;102056;-62
2022/07/30 01:32:01;;;;;;;3.03;2.73;;;;;;;17.53;100.00;96414.75;5049428;27;105792;-62
2022/07/30 01:34:31;;;;;;;3.10;2.67;;;;;;;17.48;100.00;96420.19;5048893;27;104355;-63
2022/07/30 01:37:00;;;;;;;4.20;3.10;;;;;;;17.45;100.00;96410.03;5048393;27;101799;-63
2022/07/30 01:39:29;;;;;;;2.90;2.70;;;;;;;17.54;100.00;96410.97;5048863;27;105691;-63
2022/07/30 01:41:57;;;;;;;3.17;2.87;;;;;;;17.44;100.00;96414.59;5048905;27;105377;-63
2022/07/30 01:44:28;;;;;;;3.27;2.97;;;;;;;17.43;100.00;96421.09;5052486;27;101905;-63
2022/07/30 01:46:56;;;;;;;4.43;2.70;;;;;;;17.33;100.00;96415.03;5048617;27;105815;-62
2022/07/30 01:49:26;;;;;;;3.00;2.80;;;;;;;17.36;100.00;96422.50;5049202;27;101989;-63
2022/07/30 01:51:54;;;;;;;5.67;2.90;;;;;;;17.25;100.00;96415.69;5049379;27;104637;-62
2022/07/30 01:54:26;;;;;;;2.40;2.30;;;;;;;17.44;100.00;96424.59;5048681;27;105459;-63
2022/07/30 01:56:56;;;;;;;3.43;2.57;;;;;;;17.29;100.00;96417.53;5049340;27;101883;-63
2022/07/30 01:59:27;;;;;;;2.60;2.50;;;;;;;17.42;100.00;96416.00;5048895;27;104755;-62
2022/07/30 02:01:54;;;;;;;2.87;2.63;;;;;;;17.35;100.00;96412.84;5048426;27;105556;-63
2022/07/30 02:04:22;;;;;;;2.30;2.10;;;;;;;17.49;100.00;96411.06;5048998;27;101945;-62
2022/07/30 02:06:57;;;;;;;2.20;2.00;;;;;;;17.40;100.00;96402.88;5051760;27;104538;-63
2022/07/30 02:09:31;;;;;;;2.93;2.50;;;;;;;17.44;100.00;96409.22;5049026;27;101979;-63
2022/07/30 02:14:52;;;;;;;2.90;2.67;;;;;;;17.41;100.00;96398.28;5048308;27;105830;-63
2022/07/30 02:17:23;;;;;;;3.17;2.50;;;;;;;17.34;100.00;96400.50;5050565;27;101880;-63
2022/07/30 02:19:56;;;;;;;2.70;2.50;;;;;;;17.33;100.00;96397.00;5048845;27;105475;-63
2022/07/30 02:22:25;;;;;;;2.70;2.50;;;;;;;17.33;100.00;96390.84;5048170;27;105322;-63
2022/07/30 02:24:54;;;;;;;2.83;2.53;;;;;;;17.51;100.00;96376.59;5048738;27;102013;-62
2022/07/30 02:27:26;;;;;;;2.47;2.27;;;;;;;17.63;100.00;96383.13;5050333;27;102519;-63
2022/07/30 02:29:57;;;;;;;2.40;2.30;;;;;;;17.53;100.00;96391.34;5051229;27;102353;-63
2022/07/30 02:32:27;;;;;;;2.47;2.27;;;;;;;17.62;100.00;96380.72;5048642;27;104028;-63
2022/07/30 02:35:00;;;;;;;2.70;2.10;;;;;;;17.57;100.00;96386.19;5048053;27;103903;-63
2022/07/30 02:37:31;;;;;;;2.40;2.30;;;;;;;17.54;100.00;96382.19;5049031;27;101912;-63
2022/07/30 02:39:59;;;;;;;2.47;2.23;;;;;;;17.25;100.00;96368.13;5047925;27;105514;-62
2022/07/30 02:42:29;;;;;;;2.60;2.40;;;;;;;17.11;100.00;96369.16;5048204;27;106189;-62
2022/07/30 02:44:59;;;;;;;2.90;2.57;;;;;;;17.06;100.00;96371.91;5048413;27;101876;-63
2022/07/30 02:47:28;;;;;;;2.50;2.23;;;;;;;17.11;100.00;96358.41;5048709;27;104451;-62
2022/07/30 02:50:02;;;;;;;3.20;2.33;;;;;;;17.46;100.00;96363.25;5054303;27;105138;-62
2022/07/30 02:52:32;;;;;;;2.40;2.30;;;;;;;17.44;100.00;96362.75;5051985;27;105502;-62
2022/07/30 02:55:01;;;;;;;2.60;2.40;;;;;;;17.26;100.00;96358.97;5051261;27;104845;-63
2022/07/30 02:57:31;;;;;;;2.93;2.77;;;;;;;17.02;100.00;96354.75;5051912;27;101831;-62
2022/07/30 03:00:01;;;;;;;2.70;2.50;;;;;;;17.15;100.00;96354.03;5051849;27;104960;-63
2022/07/30 03:02:29;;;;;;;2.80;2.60;;;;;;;17.07;100.00;96352.00;5051232;27;105086;-63
2022/07/30 03:04:59;;;;;;;3.43;2.50;;;;;;;17.08;100.00;96349.03;5051566;27;102326;-63
2022/07/30 03:07:27;;;;;;;3.30;3.00;;;;;;;17.10;100.00;96360.28;5051777;27;105239;-63
2022/07/30 03:09:56;;;;;;;3.00;2.70;;;;;;;17.24;100.00;96350.41;5050961;27;105820;-62
2022/07/30 03:12:26;;;;;;;3.20;2.83;;;;;;;17.23;100.00;96343.41;5055229;27;101919;-63
2022/07/30 03:14:53;;;;;;;5.23;3.17;;;;;;;17.31;100.00;96350.81;5050953;27;105650;-62
2022/07/30 03:17:26;;;;;;;3.10;2.70;;;;;;;17.44;100.00;96343.94;5051549;27;101909;-62
2022/07/30 03:19:55;;;;;;;3.07;2.87;;;;;;;17.47;100.00;96348.69;5051408;27;105708;-62
2022/07/30 03:22:25;;;;;;;3.20;2.90;;;;;;;17.68;100.00;96349.97;5050953;27;104018;-62
2022/07/30 03:24:54;;;;;;;2.67;2.47;;;;;;;17.65;100.00;96348.66;5051538;27;102130;-63
2022/07/30 03:27:23;;;;;;;3.07;2.80;;;;;;;17.60;100.00;96347.97;5051478;27;105253;-62
2022/07/30 03:29:52;;;;;;;2.90;2.70;;;;;;;17.71;100.00;96347.47;5052144;27;103207;-62
2022/07/30 03:32:23;;;;;;;2.80;2.70;;;;;;;17.65;100.00;96348.66;5050707;27;101861;-62
2022/07/30 03:34:52;;;;;;;2.93;2.37;;;;;;;17.62;100.00;96356.50;5054403;27;104992;-62
2022/07/30 03:37:20;;;;;;;3.40;3.00;;;;;;;17.46;100.00;96344.41;5052648;27;101906;-62
2022/07/30 03:39:48;;;;;;;2.80;2.60;;;;;;;17.64;100.00;96357.00;5050956;27;104813;-62
2022/07/30 03:42:16;;;;;;;2.90;2.70;;;;;;;17.56;100.00;96357.69;5052059;27;102699;-62
2022/07/30 03:44:45;;;;;;;2.70;2.50;;;;;;;17.60;100.00;96362.19;5050962;27;101931;-62
2022/07/30 03:47:14;;;;;;;2.50;2.30;;;;;;;17.46;100.00;96360.56;5051121;27;104985;-62
2022/07/30 03:49:48;;;;;;;2.20;2.10;;;;;;;17.32;100.00;96356.97;5050587;27;105417;-63
2022/07/30 03:52:17;;;;;;;2.67;2.47;;;;;;;17.33;100.00;96353.22;5051402;27;101897;-62
2022/07/30 03:54:47;;;;;;;2.30;2.20;;;;;;;17.36;100.00;96353.44;5051089;27;104845;-62
2022/07/30 03:57:33;;;;;;;2.33;2.20;;;;;;;17.62;100.00;96362.72;5052150;27;102221;-63
2022/07/30 04:00:00;;;;;;;3.47;2.53;;;;;;;17.58;100.00;96363.56;5050276;27;103893;-62
2022/07/30 04:02:28;;;;;;;3.40;2.40;;;;;;;17.56;100.00;96360.38;5050276;27;105482;-62
2022/07/30 04:04:57;;;;;;;2.50;2.30;;;;;;;17.63;100.00;96369.69;5052269;27;101940;-62
2022/07/30 04:07:24;;;;;;;2.50;2.30;;;;;;;17.67;100.00;96361.81;5051011;27;104168;-62
2022/07/30 04:09:53;;;;;;;3.40;2.40;;;;;;;17.59;100.00;96365.97;5050323;27;105579;-62
2022/07/30 04:12:32;;;;;;;2.17;2.00;;;;;;;17.64;100.00;96359.69;5050945;27;101795;-62
2022/07/30 04:15:00;;;;;;;2.20;2.10;;;;;;;17.40;100.00;96367.91;5050636;27;104739;-63
2022/07/30 04:17:33;;;;;;;2.20;2.10;;;;;;;17.33;100.00;96374.72;5049938;27;104855;-62
2022/07/30 04:20:10;;;;;;;2.43;2.23;;;;;;;17.34;100.00;96365.56;5054192;27;101902;-62
2022/07/30 04:22:39;;;;;;;2.53;2.33;;;;;;;17.28;100.00;96364.81;5051384;27;102708;-63
2022/07/30 04:25:09;;;;;;;2.43;2.27;;;;;;;17.27;100.00;96370.53;5050496;27;101809;-62
2022/07/30 04:27:38;;;;;;;2.27;2.10;;;;;;;17.44;100.00;96379.66;5050579;27;104772;-62
2022/07/30 04:30:06;;;;;;;2.20;2.00;;;;;;;17.63;100.00;96385.81;5050022;27;105133;-62
2022/07/30 04:32:38;;;;;;;2.23;2.10;;;;;;;17.75;100.00;96382.63;5050370;27;101907;-63
2022/07/30 04:35:39;;;;;;;2.23;2.00;;;;;;;17.58;100.00;96385.09;5005816;27;102223;-62
2022/07/30 04:38:17;;;;;;;2.10;2.00;;;;;;;17.78;100.00;96392.81;5049655;27;105492;-62
2022/07/30 04:40:48;;;;;;;2.30;2.10;;;;;;;17.74;100.00;96389.94;5053597;27;101952;-62
2022/07/30 04:43:16;;;;;;;1.87;1.80;;;;;;;18.01;100.00;96394.56;5049732;27;105847;-62
2022/07/30 04:45:44;;;;;;;2.20;2.10;;;;;;;17.80;100.00;96390.63;5049756;27;101773;-62
2022/07/30 04:48:12;;;;;;;2.10;1.87;;;;;;;17.81;100.00;96390.34;5050279;27;104727;-62
2022/07/30 04:50:47;;;;;;;2.30;1.90;;;;;;;17.85;100.00;96399.41;5047790;27;102367;-63
2022/07/30 04:53:18;;;;;;;2.40;2.13;;;;;;;17.90;100.00;96402.03;5050235;27;101827;-62
2022/07/30 04:55:53;;;;;;;2.97;2.13;;;;;;;18.05;100.00;96409.81;5050319;27;105354;-62
2022/07/30 04:58:24;;;;;;;2.10;2.00;;;;;;;17.96;100.00;96405.41;5049612;27;105550;-62
2022/07/30 05:00:54;;;;;;;2.27;2.10;;;;;;;17.82;100.00;96415.34;5051404;27;101832;-62
2022/07/30 05:03:27;;;;;;;2.07;1.90;;;;;;;17.94;100.00;96402.22;5052701;27;105537;-62
2022/07/30 05:05:57;;;;;;;3.47;2.27;;;;;;;18.06;100.00;96410.63;5049967;27;102092;-62
2022/07/30 05:08:24;;;;;;;4.57;2.30;;;;;;;18.18;100.00;96421.69;5049749;27;105007;-63
2022/07/30 05:10:51;;;;;;;3.53;2.40;;;;;;;18.02;100.00;96420.38;5049011;27;105228;-62
2022/07/30 05:13:19;;;;;;;2.40;2.20;;;;;;;18.08;100.00;96424.56;5049838;27;101991;-62
2022/07/30 05:15:47;;;;;;;3.57;2.30;;;;;;;18.10;100.00;96423.16;5049832;27;105122;-62
2022/07/30 05:18:17;;;;;;;2.43;2.20;;;;;;;17.99;100.00;96420.97;5048905;27;105566;-62
2022/07/30 05:20:44;;;;;;;2.33;2.07;;;;;;;18.10;100.00;96425.88;5049430;27;102017;-62
2022/07/30 05:23:21;;;;;;;4.43;2.40;;;;;;;18.10;100.00;96427.78;5049837;27;105552;-62
2022/07/30 05:26:11;;;;;;;2.33;2.13;;;;;;;18.38;100.00;96429.44;5042581;27;104218;-62
2022/07/30 05:28:43;;;;;;;2.90;2.20;;;;;;;18.44;100.00;96433.63;5048825;27;103502;-62
2022/07/30 05:31:13;;;;;;;2.30;2.10;;;;;;;18.60;100.00;96437.63;5048382;27;105122;-62
2022/07/30 05:33:55;;;;;;;5.77;2.60;;;;;;;18.79;100.00;96432.91;5049301;27;101919;-62
2022/07/30 05:36:25;;;;;;;2.43;2.10;;;;;;;18.63;100.00;96426.25;5049454;27;105185;-62
2022/07/30 05:38:55;;;;;;;4.03;2.40;;;;;;;18.74;100.00;96433.81;5048547;27;105493;-62
2022/07/30 05:41:22;;;;;;;3.77;2.20;;;;;;;18.72;100.00;96436.03;5047999;27;101699;-62
2022/07/30 05:44:06;;;;;;;4.07;2.30;;;;;;;18.67;100.00;96430.75;5049808;27;104887;-64
2022/07/30 05:46:34;;;;;;;4.37;2.50;;;;;;;18.56;100.00;96431.22;5048821;27;105725;-62
2022/07/30 05:49:01;;;;;;;3.20;2.50;;;;;;;18.66;100.00;96428.34;5053180;27;102095;-62
2022/07/30 05:51:28;;;;;;;2.63;2.30;;;;;;;18.73;100.00;96442.19;5049031;27;105751;-61
2022/07/30 05:54:07;;;;;;;3.50;2.00;;;;;;;18.50;100.00;96435.13;5049589;27;101957;-62
2022/07/30 05:57:02;;;;;;;2.30;2.20;;;;;;;18.46;100.00;96436.81;5050934;27;105110;-62
2022/07/30 05:59:32;;;;;;;2.57;2.20;;;;;;;18.59;100.00;96441.41;5050271;27;103199;-62
2022/07/30 06:02:05;;;;;;;2.80;2.23;;;;;;;18.60;100.00;96443.00;5049655;27;101839;-61
2022/07/30 06:04:58;;;;;;;2.50;2.30;;;;;;;18.34;100.00;96445.38;5012773;27;102155;-62
2022/07/30 06:07:27;;;;;;;2.87;2.00;;;;;;;18.25;100.00;96446.34;5028550;28;104285;-62
2022/07/30 06:09:59;;;;;;;2.07;1.87;;;;;;;18.25;100.00;96443.66;5038034;27;103119;-62
2022/07/30 06:12:27;;;;;;;2.07;1.97;;;;;;;18.29;100.00;96444.63;5051593;27;105311;-62
2022/07/30 06:14:55;;;;;;;2.30;2.10;;;;;;;18.12;100.00;96452.50;5048403;27;102180;-63
2022/07/30 06:17:28;;;;;;;2.37;2.17;;;;;;;18.22;100.00;96463.09;5048859;27;105296;-62
2022/07/30 06:20:16;;;;;;;1.90;1.80;;;;;;;18.37;100.00;96468.22;5046644;27;102252;-62
2022/07/30 06:23:03;;;;;;;2.00;1.90;;;;;;;18.33;100.00;96464.53;5050183;27;101925;-62
2022/07/30 06:25:52;;;;;;;2.37;1.90;;;;;;;18.43;100.00;96467.03;5053412;27;103614;-62
2022/07/30 06:28:19;;;;;;;4.10;2.37;;;;;;;18.46;100.00;96463.72;5053101;27;101737;-62
2022/07/30 06:30:47;;;;;;;2.00;1.90;;;;;;;18.57;100.00;96465.13;5052397;27;101874;-62
2022/07/30 06:33:15;;;;;;;2.83;2.63;;;;;;;18.76;100.00;96468.56;5052114;27;104438;-62
2022/07/30 06:35:42;;;;;;;3.43;2.43;;;;;;;18.75;100.00;96466.97;5055220;27;106060;-62
2022/07/30 06:38:11;;;;;;;2.73;1.90;;;;;;;19.06;100.00;96474.13;5052275;27;103525;-63
2022/07/30 06:40:54;;;;;;;3.23;2.40;;;;;;;19.17;100.00;96469.31;5050984;27;105389;-62
2022/07/30 06:43:31;;;;;;;2.27;2.03;;;;;;;19.15;100.00;96482.28;5052181;27;101922;-62
2022/07/30 06:46:21;;;;;;;6.50;2.63;;;;;;;19.13;100.00;96481.81;5053015;27;103648;-63
2022/07/30 06:48:50;;;;;;;3.67;2.10;;;;;;;19.13;100.00;96479.13;5051426;27;105787;-62
2022/07/30 06:51:18;;;;;;;5.53;2.30;;;;;;;19.11;100.00;96489.38;5051967;27;101904;-63
2022/07/30 06:53:44;;;;;;;4.23;1.90;;;;;;;19.16;100.00;96484.69;5051834;27;105129;-63
2022/07/30 06:56:14;;;;;;;5.40;2.20;;;;;;;19.21;100.00;96487.31;5056123;27;102357;-63
2022/07/30 06:58:49;;;;;;;3.17;2.20;;;;;;;19.19;100.00;96488.69;5052042;27;104951;-62
2022/07/30 07:01:36;;;;;;;4.20;2.20;;;;;;;19.27;100.00;96493.38;5030231;27;102574;-63
2022/07/30 07:04:04;;;;;;;2.93;2.10;;;;;;;19.22;100.00;96493.50;5051877;27;102189;-62
2022/07/30 07:06:33;;;;;;;2.23;2.07;;;;;;;19.32;100.00;96493.28;5053163;27;101786;-63
2022/07/30 07:09:00;;;;;;;2.30;2.20;;;;;;;19.51;100.00;96489.34;5050877;27;105542;-68
2022/07/30 07:11:40;;;;;;;3.00;2.40;;;;;;;19.60;100.00;96490.22;5051553;27;101896;-62
2022/07/30 07:14:10;;;;;;;4.13;2.00;;;;;;;19.75;100.00;96491.75;5053371;27;102755;-62
2022/07/30 07:16:37;;;;;;;2.87;2.50;;;;;;;19.76;100.00;96490.66;5052296;27;102638;-62
2022/07/30 07:19:24;;;;;;;3.13;2.20;;;;;;;19.64;100.00;96490.41;5055379;27;101889;-63
2022/07/30 07:21:51;;;;;;;4.17;2.27;;;;;;;19.68;100.00;96494.09;5050732;27;105467;-63
2022/07/30 07:24:19;;;;;;;4.20;2.40;;;;;;;19.68;100.00;96494.88;5050935;27;102139;-64
2022/07/30 07:26:57;;;;;;;2.73;2.50;;;;;;;19.56;100.00;96493.84;5051525;27;105066;-64
2022/07/30 07:29:24;;;;;;;2.60;2.37;;;;;;;19.76;100.00;96498.75;5050324;27;105022;-62
2022/07/30 07:31:52;;;;;;;2.80;2.60;;;;;;;19.80;100.00;96494.34;5051341;27;101976;-63
2022/07/30 07:34:19;;;;;;;3.60;2.70;;;;;;;19.95;100.00;96499.38;5050963;27;105155;-63
2022/07/30 07:36:46;;;;;;;2.87;2.50;;;;;;;19.80;100.00;96492.47;5051443;27;102557;-62
2022/07/30 07:39:14;;;;;;;3.20;2.90;;;;;;;19.51;100.00;96491.25;5050755;27;101904;-63
2022/07/30 07:41:43;;;;;;;5.37;2.60;;;;;;;19.67;100.00;96489.81;5054160;27;104952;-61
2022/07/30 07:44:12;;;;;;;2.70;2.50;;;;;;;19.71;100.00;96486.19;5050046;27;103635;-63
2022/07/30 07:46:39;;;;;;;3.67;2.70;;;;;;;19.72;100.00;96495.09;5052284;27;102878;-63
2022/07/30 07:49:07;;;;;;;3.83;2.40;;;;;;;19.74;100.00;96492.88;5050234;27;105223;-64
2022/07/30 07:51:38;;;;;;;3.90;2.77;;;;;;;19.66;100.00;96496.28;5050594;27;101988;-62
2022/07/30 07:54:08;;;;;;;2.60;2.40;;;;;;;19.70;100.00;96491.88;5050174;27;104517;-62
2022/07/30 07:56:35;;;;;;;2.60;2.40;;;;;;;19.68;100.00;96496.78;5047098;27;105726;-59
2022/07/30 07:59:03;;;;;;;3.13;2.70;;;;;;;19.72;100.00;96493.16;5050441;27;101883;-62
2022/07/30 08:01:32;;;;;;;3.10;2.90;;;;;;;19.84;100.00;96489.94;5050642;27;105475;-60
2022/07/30 08:04:09;;;;;;;3.00;2.80;;;;;;;20.14;100.00;96483.81;5050776;27;102533;-62
2022/07/30 08:06:54;;;;;;;3.63;2.63;;;;;;;20.03;100.00;96496.75;5049184;27;102046;-61
2022/07/30 08:09:40;;;;;;;3.53;2.80;;;;;;;19.97;100.00;96494.47;5051363;27;102526;-62
2022/07/30 08:12:13;;;;;;;4.63;3.20;;;;;;;19.93;100.00;96502.38;5050627;27;102171;-61
2022/07/30 08:14:59;;;;;;;3.03;2.73;;;;;;;19.88;100.00;96501.69;5049246;27;101993;-61
2022/07/30 08:17:48;;;;;;;3.67;2.70;;;;;;;20.01;100.00;96511.66;5005529;27;103606;-61
2022/07/30 08:20:18;;;;;;;4.13;3.07;;;;;;;20.10;100.00;96507.16;5043922;27;102665;-62
2022/07/30 08:22:46;;;;;;;4.73;3.20;;;;;;;20.00;100.00;96504.66;5049879;27;105359;-62
2022/07/30 08:25:15;;;;;;;3.13;2.93;;;;;;;19.83;100.00;96515.34;5049369;27;104126;-61
2022/07/30 08:27:44;;;;;;;3.50;3.20;;;;;;;19.94;100.00;96516.69;5052615;27;101869;-62
2022/07/30 08:30:12;;;;;;;3.17;2.97;;;;;;;19.93;100.00;96512.38;5047590;27;105176;-62
2022/07/30 08:32:40;;;;;;;3.87;3.47;;;;;;;19.92;100.00;96508.09;5050188;27;101994;-62
2022/07/30 08:35:09;;;;;;;5.03;3.13;;;;;;;20.14;100.00;96513.53;5050282;27;105204;-61
2022/07/30 08:37:39;;;;;;;2.90;2.70;;;;;;;20.47;100.00;96509.44;5049477;27;106031;-61
2022/07/30 08:40:08;;;;;;;3.40;3.10;;;;;;;20.43;100.00;96501.16;5049746;27;101842;-61
2022/07/30 08:42:43;;;;;;;2.83;2.63;;;;;;;20.64;100.00;96504.13;5050189;27;104095;-62
2022/07/30 08:45:13;;;;;;;3.20;2.90;;;;;;;20.84;100.00;96514.38;5049451;27;105323;-62
2022/07/30 08:47:44;;;;;;;2.90;2.70;;;;;;;21.14;100.00;96502.78;5049559;27;101836;-62
2022/07/30 08:50:14;;;;;;;4.30;3.00;;;;;;;21.09;100.00;96505.63;5051250;27;102239;-62
2022/07/30 08:53:06;;;;;;;3.30;2.80;;;;;;;20.86;100.00;96494.06;5048986;27;101889;-62
2022/07/30 08:55:33;;;;;;;3.40;3.10;;;;;;;20.83;100.00;96502.00;5050278;27;104884;-62
2022/07/30 08:58:01;;;;;;;3.07;2.87;;;;;;;20.88;100.00;96493.75;5049391;27;105121;-62
2022/07/30 09:00:30;;;;;;;3.07;2.87;;;;;;;20.67;100.00;96508.91;5049986;27;102008;-62
2022/07/30 09:02:57;;;;;;;3.77;3.13;;;;;;;20.80;100.00;96502.59;5049818;27;105127;-61
2022/07/30 09:05:26;;;;;;;2.97;2.63;;;;;;;20.85;100.00;96497.88;5048984;27;106050;-62
2022/07/30 09:07:54;;;;;;;3.00;2.80;;;;;;;20.96;100.00;96501.09;5049786;27;102579;-61
2022/07/30 09:10:24;;;;;;;2.90;2.70;;;;;;;21.10;100.00;96497.16;5052172;27;105174;-60
2022/07/30 09:12:51;;;;;;;4.40;2.90;;;;;;;21.53;100.00;96505.41;5049876;27;101968;-61
2022/07/30 09:15:22;;;;;;;2.80;2.60;;;;;;;21.84;100.00;96503.34;5050863;27;102297;-61
2022/07/30 09:17:52;;;;;;;3.87;2.80;;;;;;;21.67;100.00;96503.31;5050315;27;102706;-61
2022/07/30 09:20:19;;;;;;;3.60;3.30;;;;;;;21.57;100.00;96507.16;5049766;27;101879;-61
2022/07/30 09:22:50;;;;;;;3.77;3.20;;;;;;;21.60;100.00;96494.88;5049712;27;105115;-61
2022/07/30 09:25:50;;;;;;;4.63;3.70;;;;;;;22.14;100.00;96499.69;5037787;27;104101;-61
2022/07/30 09:28:35;;;;;;;6.00;3.83;;;;;;;22.80;100.00;96499.88;5048009;27;101782;-61
2022/07/30 09:31:15;;;;;;;4.97;3.20;;;;;;;22.77;100.00;96497.81;5047855;27;102281;-61
2022/07/30 09:34:00;;;;;;;3.83;3.40;;;;;;;22.31;100.00;96497.75;5050822;27;101836;-61
2022/07/30 09:36:46;;;;;;;3.30;3.10;;;;;;;22.53;100.00;96494.88;5047881;27;102016;-61
2022/07/30 09:39:32;;;;;;;4.93;3.07;;;;;;;22.54;100.00;96495.66;5047350;27;102467;-61
2022/07/30 09:42:22;;;;;;;3.53;2.87;;;;;;;22.99;100.00;96492.13;5050935;27;101714;-61
2022/07/30 09:44:52;;;;;;;5.33;3.27;;;;;;;23.30;100.00;96489.13;5049223;27;105033;-61
2022/07/30 09:47:33;;;;;;;2.97;2.67;;;;;;;22.96;100.00;96492.00;5048396;27;105940;-61
2022/07/30 09:50:06;;;;;;;3.43;3.13;;;;;;;22.90;100.00;96494.09;5050326;27;101902;-61
2022/07/30 09:52:34;;;;;;;3.00;2.70;;;;;;;22.68;100.00;96480.75;5049459;27;105358;-61
2022/07/30 09:55:03;;;;;;;3.00;2.63;;;;;;;22.83;100.00;96490.31;5048606;27;105730;-61
2022/07/30 09:57:30;;;;;;;3.33;2.33;;;;;;;22.65;100.00;96477.91;5052453;27;101922;-61
2022/07/30 10:00:17;;;;;;;2.57;2.37;;;;;;;23.20;100.00;96486.78;5047847;27;105534;-61
2022/07/30 10:02:50;;;;;;;3.23;2.73;;;;;;;23.42;100.00;96483.78;5049322;27;102117;-61
2022/07/30 10:05:21;;;;;;;2.47;2.27;;;;;;;23.76;100.00;96476.19;5047207;27;102210;-61
2022/07/30 10:07:50;;;;;;;2.63;2.43;;;;;;;23.74;100.00;96485.78;5048579;27;104419;-62
2022/07/30 10:10:22;;;;;;;1.97;1.73;;;;;;;23.56;100.00;96485.13;5050116;27;101910;-61
2022/07/30 10:12:52;;;;;;;2.83;1.90;;;;;;;23.35;100.00;96487.03;5048826;27;105113;-61
2022/07/30 10:15:20;;;;;;;3.93;2.27;;;;;;;23.30;100.00;96489.13;5048275;27;104452;-61
2022/07/30 10:17:48;;;;;;;1.80;1.70;;;;;;;23.17;100.00;96484.72;5048888;27;101925;-61
2022/07/30 10:20:39;;;;;;;2.60;1.80;;;;;;;23.71;100.00;96483.75;5023064;27;102240;-61
2022/07/30 10:23:28;;;;;;;2.10;2.00;;;;;;;24.14;100.00;96478.78;5047066;27;101697;-61
2022/07/30 10:26:17;;;;;;;1.60;1.50;;;;;;;23.81;100.00;96467.84;5047049;27;102159;-61
2022/07/30 10:29:04;;;;;;;1.73;1.60;;;;;;;23.69;100.00;96475.94;5046676;27;102275;-61
2022/07/30 10:31:31;;;;;;;2.40;2.00;;;;;;;23.76;100.00;96470.75;5048812;27;101949;-61
2022/07/30 10:33:58;;;;;;;2.97;2.00;;;;;;;24.13;100.00;96469.81;5049717;27;102893;-61
2022/07/30 10:36:27;;;;;;;3.70;1.90;;;;;;;23.77;100.00;96472.34;5049662;27;103157;-62
2022/07/30 10:38:55;;;;;;;2.50;1.80;;;;;;;23.51;100.00;96471.75;5049709;27;102179;-62
2022/07/30 10:41:45;;;;;;;2.67;1.90;;;;;;;23.17;100.00;96471.16;5048681;27;105337;-61
2022/07/30 10:44:30;;;;;;;1.70;1.60;;;;;;;23.15;100.00;96470.69;5051144;27;104396;-61
2022/07/30 10:47:02;;;;;;;2.03;1.83;;;;;;;23.53;100.00;96469.50;5048527;27;105457;-62
2022/07/30 10:49:29;;;;;;;3.30;1.80;;;;;;;24.48;98.27;96470.28;5049536;27;103199;-62
2022/07/30 10:51:57;;;;;;;2.00;1.63;;;;;;;24.62;90.57;96462.66;5049847;27;101954;-61
2022/07/30 10:54:38;;;;;;;3.23;1.67;;;;;;;24.79;96.03;96459.72;5049799;27;102228;-61
2022/07/30 10:57:12;;;;;;;1.63;1.53;;;;;;;24.99;83.21;96475.94;5047836;27;105856;-61
2022/07/30 11:00:08;;;;;;;2.30;1.30;;;;;;;24.76;70.33;96468.53;5048301;27;101821;-61
2022/07/30 11:02:35;;;;;;;3.43;1.60;;;;;;;24.41;84.20;96461.88;5048442;27;103985;-61
2022/07/30 11:05:22;;;;;;;1.90;1.67;;;;;;;23.92;98.51;96474.47;5049118;27;102563;-62
2022/07/30 11:07:50;;;;;;;2.13;1.63;;;;;;;24.01;89.48;96472.50;5053094;27;101729;-62
2022/07/30 11:10:36;;;;;;;1.70;1.60;;;;;;;24.82;89.94;96465.25;5049640;27;105350;-61
2022/07/30 11:13:05;;;;;;;2.73;1.60;;;;;;;24.70;76.60;96469.88;5052738;27;102121;-61
2022/07/30 11:15:53;;;;;;;1.70;1.60;;;;;;;24.38;68.17;96481.56;5052938;27;102568;-61
2022/07/30 11:18:20;;;;;;;1.80;1.30;;;;;;;24.68;77.77;96462.06;5050927;27;104444;-61
2022/07/30 11:21:23;;;;;;;2.23;1.70;;;;;;;24.68;78.00;96467.50;5053105;27;101809;-61
2022/07/30 11:23:50;;;;;;;3.43;1.43;;;;;;;25.16;79.17;96459.38;5048127;27;102546;-62
2022/07/30 11:26:52;;;;;;;2.37;1.67;;;;;;;25.20;68.06;96454.03;5050976;27;105928;-61
2022/07/30 11:29:48;;;;;;;1.73;1.63;;;;;;;24.74;72.62;96457.22;5056355;27;102025;-62
2022/07/30 11:32:39;;;;;;;1.60;1.50;;;;;;;24.37;71.41;96455.53;5052100;27;103073;-62
2022/07/30 11:35:15;;;;;;;3.93;1.70;;;;;;;23.84;74.67;96475.34;5026241;27;101782;-61
2022/07/30 11:38:00;;;;;;;2.53;1.50;;;;;;;23.78;76.28;96465.00;5052778;27;104070;-62
2022/07/30 11:40:29;;;;;;;1.80;1.70;;;;;;;24.11;86.67;96466.66;5051671;27;102517;-61
2022/07/30 11:43:18;;;;;;;1.43;1.20;;;;;;;23.75;70.66;96460.25;5051130;27;101826;-62
2022/07/30 11:45:47;;;;;;;1.40;1.30;;;;;;;23.61;65.92;96465.13;5052536;27;102749;-61